sensor_id;sensor_type;location;lat;lon;timestamp;temperature;humidity
15991;DHT22;8100;50.994;4.538;2022-09-27T00:02:24;10.00;99.90
15991;DHT22;8100;50.994;4.538;2022-09-27T00:05:11;10.00;99.90
15991;DHT22;8100;50.994;4.538;2022-09-27T00:07:58;9.40;99.90
15991;DHT22;8100;50.994;4.538;2022-09-27T00:10:46;9.90;99.90
15991;DHT22;8100;50.994;4.538;2022-09-27T00:13:34;9.60;99.90
15991;DHT22;8100;50.994;4.538;2022-09-27T00:16:22;9.50;99.90
15991;DHT22;8100;50.994;4.538;2022-09-27T00:19:12;10.20;99.90
15991;DHT22;8100;50.994;4.538;2022-09-27T00:21:59;10.00;99.90
15991;DHT22;8100;50.994;4.538;2022-09-27T00:24:47;10.10;99.90
15991;DHT22;8100;50.994;4.538;2022-09-27T00:27:34;10.00;99.90
15991;DHT22;8100;50.994;4.538;2022-09-27T00:30:23;9.90;99.90
15991;DHT22;8100;50.994;4.538;2022-09-27T00:33:10;9.80;99.90
15991;DHT22;8100;50.994;4.538;2022-09-27T00:36:03;9.60;99.90
15991;DHT22;8100;50.994;4.538;2022-09-27T00:38:51;9.30;99.90
15991;DHT22;8100;50.994;4.538;2022-09-27T00:41:38;9.40;99.90
15991;DHT22;8100;50.994;4.538;2022-09-27T00:47:55;9.40;99.90
15991;DHT22;8100;50.994;4.538;2022-09-27T00:50:48;10.20;99.90
15991;DHT22;8100;50.994;4.538;2022-09-27T00:53:39;9.60;99.90
15991;DHT22;8100;50.994;4.538;2022-09-27T00:56:31;10.10;99.90
15991;DHT22;8100;50.994;4.538;2022-09-27T00:59:22;9.30;99.90
15991;DHT22;8100;50.994;4.538;2022-09-27T01:02:11;9.60;99.90
15991;DHT22;8100;50.994;4.538;2022-09-27T01:05:00;9.20;99.90
15991;DHT22;8100;50.994;4.538;2022-09-27T01:07:48;10.20;99.90
15991;DHT22;8100;50.994;4.538;2022-09-27T01:10:40;9.30;99.90
15991;DHT22;8100;50.994;4.538;2022-09-27T01:13:38;9.50;99.90
15991;DHT22;8100;50.994;4.538;2022-09-27T01:16:34;9.90;99.90
15991;DHT22;8100;50.994;4.538;2022-09-27T01:19:46;9.00;99.90
15991;DHT22;8100;50.994;4.538;2022-09-27T01:22:41;9.60;99.90
15991;DHT22;8100;50.994;4.538;2022-09-27T01:25:46;9.60;99.90
15991;DHT22;8100;50.994;4.538;2022-09-27T01:28:47;9.40;99.90
15991;DHT22;8100;50.994;4.538;2022-09-27T01:31:44;9.90;99.90
15991;DHT22;8100;50.994;4.538;2022-09-27T01:34:38;9.80;99.90
15991;DHT22;8100;50.994;4.538;2022-09-27T01:37:33;8.90;99.90
15991;DHT22;8100;50.994;4.538;2022-09-27T01:40:26;9.00;99.90
15991;DHT22;8100;50.994;4.538;2022-09-27T01:43:18;9.20;99.90
15991;DHT22;8100;50.994;4.538;2022-09-27T01:46:10;9.90;99.90
15991;DHT22;8100;50.994;4.538;2022-09-27T01:49:07;9.60;99.90
15991;DHT22;8100;50.994;4.538;2022-09-27T01:51:59;8.90;99.90
15991;DHT22;8100;50.994;4.538;2022-09-27T01:54:50;9.40;99.90
15991;DHT22;8100;50.994;4.538;2022-09-27T01:57:42;8.80;99.90
15991;DHT22;8100;50.994;4.538;2022-09-27T02:00:33;9.10;99.90
15991;DHT22;8100;50.994;4.538;2022-09-27T02:03:24;8.80;99.90
15991;DHT22;8100;50.994;4.538;2022-09-27T02:06:15;8.80;99.90
15991;DHT22;8100;50.994;4.538;2022-09-27T02:09:07;8.90;99.90
15991;DHT22;8100;50.994;4.538;2022-09-27T02:12:00;9.50;99.90
15991;DHT22;8100;50.994;4.538;2022-09-27T02:14:52;9.00;99.90
15991;DHT22;8100;50.994;4.538;2022-09-27T02:17:45;9.60;99.90
15991;DHT22;8100;50.994;4.538;2022-09-27T02:20:38;8.90;99.90
15991;DHT22;8100;50.994;4.538;2022-09-27T02:23:33;9.20;99.90
15991;DHT22;8100;50.994;4.538;2022-09-27T02:26:26;8.90;99.90
15991;DHT22;8100;50.994;4.538;2022-09-27T02:29:15;8.90;99.90
15991;DHT22;8100;50.994;4.538;2022-09-27T02:32:04;8.90;99.90
15991;DHT22;8100;50.994;4.538;2022-09-27T02:34:52;9.50;99.90
15991;DHT22;8100;50.994;4.538;2022-09-27T02:37:40;8.70;99.90
15991;DHT22;8100;50.994;4.538;2022-09-27T02:40:32;8.60;99.90
15991;DHT22;8100;50.994;4.538;2022-09-27T02:43:20;8.90;99.90
15991;DHT22;8100;50.994;4.538;2022-09-27T02:46:23;9.30;99.90
15991;DHT22;8100;50.994;4.538;2022-09-27T02:49:29;8.90;99.90
15991;DHT22;8100;50.994;4.538;2022-09-27T02:52:24;8.70;99.90
15991;DHT22;8100;50.994;4.538;2022-09-27T02:55:18;9.40;99.90
15991;DHT22;8100;50.994;4.538;2022-09-27T02:58:15;9.30;99.90
15991;DHT22;8100;50.994;4.538;2022-09-27T03:01:10;8.70;99.90
15991;DHT22;8100;50.994;4.538;2022-09-27T03:04:04;8.90;99.90
15991;DHT22;8100;50.994;4.538;2022-09-27T03:06:53;8.80;99.90
15991;DHT22;8100;50.994;4.538;2022-09-27T03:09:44;9.30;99.90
15991;DHT22;8100;50.994;4.538;2022-09-27T03:12:33;9.30;99.90
15991;DHT22;8100;50.994;4.538;2022-09-27T03:15:22;9.30;99.90
15991;DHT22;8100;50.994;4.538;2022-09-27T03:18:09;8.50;99.90
15991;DHT22;8100;50.994;4.538;2022-09-27T03:20:56;9.10;99.90
15991;DHT22;8100;50.994;4.538;2022-09-27T03:23:43;9.20;99.90
15991;DHT22;8100;50.994;4.538;2022-09-27T03:26:31;8.40;99.90
15991;DHT22;8100;50.994;4.538;2022-09-27T03:29:18;8.70;99.90
15991;DHT22;8100;50.994;4.538;2022-09-27T03:32:07;9.10;99.90
15991;DHT22;8100;50.994;4.538;2022-09-27T03:34:54;8.60;99.90
15991;DHT22;8100;50.994;4.538;2022-09-27T03:37:41;8.80;99.90
15991;DHT22;8100;50.994;4.538;2022-09-27T03:40:28;9.20;99.90
15991;DHT22;8100;50.994;4.538;2022-09-27T03:43:16;9.20;99.90
15991;DHT22;8100;50.994;4.538;2022-09-27T03:46:03;9.40;99.90
15991;DHT22;8100;50.994;4.538;2022-09-27T03:48:52;8.70;99.90
15991;DHT22;8100;50.994;4.538;2022-09-27T03:51:39;9.40;99.90
15991;DHT22;8100;50.994;4.538;2022-09-27T03:54:27;8.90;99.90
15991;DHT22;8100;50.994;4.538;2022-09-27T03:57:14;9.40;99.90
15991;DHT22;8100;50.994;4.538;2022-09-27T04:00:03;8.70;99.90
15991;DHT22;8100;50.994;4.538;2022-09-27T04:02:51;9.00;99.90
15991;DHT22;8100;50.994;4.538;2022-09-27T04:05:40;9.30;99.90
15991;DHT22;8100;50.994;4.538;2022-09-27T04:08:27;9.20;99.90
15991;DHT22;8100;50.994;4.538;2022-09-27T04:11:15;8.50;99.90
15991;DHT22;8100;50.994;4.538;2022-09-27T04:14:02;8.40;99.90
15991;DHT22;8100;50.994;4.538;2022-09-27T04:16:50;9.00;99.90
15991;DHT22;8100;50.994;4.538;2022-09-27T04:19:37;8.40;99.90
15991;DHT22;8100;50.994;4.538;2022-09-27T04:22:26;8.30;99.90
15991;DHT22;8100;50.994;4.538;2022-09-27T04:25:13;9.20;99.90
15991;DHT22;8100;50.994;4.538;2022-09-27T04:28:01;8.40;99.90
15991;DHT22;8100;50.994;4.538;2022-09-27T04:30:48;9.10;99.90
15991;DHT22;8100;50.994;4.538;2022-09-27T04:33:36;8.30;99.90
15991;DHT22;8100;50.994;4.538;2022-09-27T04:36:24;8.60;99.90
15991;DHT22;8100;50.994;4.538;2022-09-27T04:39:15;9.10;99.90
15991;DHT22;8100;50.994;4.538;2022-09-27T04:42:02;8.30;99.90
15991;DHT22;8100;50.994;4.538;2022-09-27T04:44:50;8.50;99.90
15991;DHT22;8100;50.994;4.538;2022-09-27T04:47:41;9.10;99.90
15991;DHT22;8100;50.994;4.538;2022-09-27T04:50:29;8.40;99.90
15991;DHT22;8100;50.994;4.538;2022-09-27T04:53:17;8.50;99.90
15991;DHT22;8100;50.994;4.538;2022-09-27T04:56:06;8.60;99.90
15991;DHT22;8100;50.994;4.538;2022-09-27T04:58:53;8.40;99.90
15991;DHT22;8100;50.994;4.538;2022-09-27T05:01:40;9.20;99.90
15991;DHT22;8100;50.994;4.538;2022-09-27T05:04:28;8.40;99.90
15991;DHT22;8100;50.994;4.538;2022-09-27T05:07:15;8.90;99.90
15991;DHT22;8100;50.994;4.538;2022-09-27T05:10:03;9.10;99.90
15991;DHT22;8100;50.994;4.538;2022-09-27T05:12:51;8.40;99.90
15991;DHT22;8100;50.994;4.538;2022-09-27T05:15:39;8.70;99.90
15991;DHT22;8100;50.994;4.538;2022-09-27T05:18:26;9.10;99.90
15991;DHT22;8100;50.994;4.538;2022-09-27T05:21:13;8.50;99.90
15991;DHT22;8100;50.994;4.538;2022-09-27T05:24:01;9.30;99.90
15991;DHT22;8100;50.994;4.538;2022-09-27T05:26:48;9.00;99.90
15991;DHT22;8100;50.994;4.538;2022-09-27T05:29:37;8.50;99.90
15991;DHT22;8100;50.994;4.538;2022-09-27T05:32:24;8.90;99.90
15991;DHT22;8100;50.994;4.538;2022-09-27T05:35:11;8.50;99.90
15991;DHT22;8100;50.994;4.538;2022-09-27T05:37:59;8.60;99.90
15991;DHT22;8100;50.994;4.538;2022-09-27T05:40:46;9.30;99.90
15991;DHT22;8100;50.994;4.538;2022-09-27T05:43:35;9.20;99.90
15991;DHT22;8100;50.994;4.538;2022-09-27T05:46:24;9.00;99.90
15991;DHT22;8100;50.994;4.538;2022-09-27T05:49:11;9.30;99.90
15991;DHT22;8100;50.994;4.538;2022-09-27T05:51:59;8.70;99.90
15991;DHT22;8100;50.994;4.538;2022-09-27T05:54:46;9.20;99.90
15991;DHT22;8100;50.994;4.538;2022-09-27T05:57:34;9.40;99.90
15991;DHT22;8100;50.994;4.538;2022-09-27T06:00:21;8.60;99.90
15991;DHT22;8100;50.994;4.538;2022-09-27T06:03:12;9.30;99.90
15991;DHT22;8100;50.994;4.538;2022-09-27T06:06:01;8.90;99.90
15991;DHT22;8100;50.994;4.538;2022-09-27T06:08:50;8.90;99.90
15991;DHT22;8100;50.994;4.538;2022-09-27T06:11:39;8.90;99.90
15991;DHT22;8100;50.994;4.538;2022-09-27T06:14:27;9.40;99.90
15991;DHT22;8100;50.994;4.538;2022-09-27T06:17:15;8.70;99.90
15991;DHT22;8100;50.994;4.538;2022-09-27T06:20:04;9.20;99.90
15991;DHT22;8100;50.994;4.538;2022-09-27T06:22:52;8.70;99.90
15991;DHT22;8100;50.994;4.538;2022-09-27T06:25:40;8.90;99.90
15991;DHT22;8100;50.994;4.538;2022-09-27T06:28:27;9.30;99.90
15991;DHT22;8100;50.994;4.538;2022-09-27T06:31:14;8.70;99.90
15991;DHT22;8100;50.994;4.538;2022-09-27T06:34:02;9.10;99.90
15991;DHT22;8100;50.994;4.538;2022-09-27T06:36:51;9.50;99.90
15991;DHT22;8100;50.994;4.538;2022-09-27T06:39:38;8.90;99.90
15991;DHT22;8100;50.994;4.538;2022-09-27T06:42:26;9.10;99.90
15991;DHT22;8100;50.994;4.538;2022-09-27T06:45:14;9.10;99.90
15991;DHT22;8100;50.994;4.538;2022-09-27T06:48:01;8.80;99.90
15991;DHT22;8100;50.994;4.538;2022-09-27T06:50:49;9.00;99.90
15991;DHT22;8100;50.994;4.538;2022-09-27T06:53:37;9.00;99.90
15991;DHT22;8100;50.994;4.538;2022-09-27T06:56:24;9.10;99.90
15991;DHT22;8100;50.994;4.538;2022-09-27T06:59:12;8.90;99.90
15991;DHT22;8100;50.994;4.538;2022-09-27T07:02:27;9.20;99.90
15991;DHT22;8100;50.994;4.538;2022-09-27T07:05:15;9.00;99.90
15991;DHT22;8100;50.994;4.538;2022-09-27T07:08:02;9.50;99.90
15991;DHT22;8100;50.994;4.538;2022-09-27T07:10:51;9.10;99.90
15991;DHT22;8100;50.994;4.538;2022-09-27T07:13:40;9.50;99.90
15991;DHT22;8100;50.994;4.538;2022-09-27T07:16:28;9.20;99.90
15991;DHT22;8100;50.994;4.538;2022-09-27T07:19:16;9.40;99.90
15991;DHT22;8100;50.994;4.538;2022-09-27T07:22:03;9.20;99.90
15991;DHT22;8100;50.994;4.538;2022-09-27T07:24:50;9.20;99.90
15991;DHT22;8100;50.994;4.538;2022-09-27T07:27:39;9.50;99.90
15991;DHT22;8100;50.994;4.538;2022-09-27T07:30:27;9.20;99.90
15991;DHT22;8100;50.994;4.538;2022-09-27T07:33:15;9.30;99.90
15991;DHT22;8100;50.994;4.538;2022-09-27T07:36:06;9.50;99.90
15991;DHT22;8100;50.994;4.538;2022-09-27T07:38:53;10.00;99.90
15991;DHT22;8100;50.994;4.538;2022-09-27T07:41:42;10.00;99.90
15991;DHT22;8100;50.994;4.538;2022-09-27T07:44:31;9.90;99.90
15991;DHT22;8100;50.994;4.538;2022-09-27T07:47:18;9.80;99.90
15991;DHT22;8100;50.994;4.538;2022-09-27T07:50:07;9.80;99.90
15991;DHT22;8100;50.994;4.538;2022-09-27T07:52:55;9.80;99.90
15991;DHT22;8100;50.994;4.538;2022-09-27T07:55:43;9.80;99.90
15991;DHT22;8100;50.994;4.538;2022-09-27T07:58:35;9.90;99.90
15991;DHT22;8100;50.994;4.538;2022-09-27T08:01:24;9.90;99.90
15991;DHT22;8100;50.994;4.538;2022-09-27T08:04:11;9.90;99.90
15991;DHT22;8100;50.994;4.538;2022-09-27T08:06:58;10.00;99.90
15991;DHT22;8100;50.994;4.538;2022-09-27T08:09:45;10.00;99.90
15991;DHT22;8100;50.994;4.538;2022-09-27T08:12:33;10.00;99.90
15991;DHT22;8100;50.994;4.538;2022-09-27T08:15:20;10.00;99.90
15991;DHT22;8100;50.994;4.538;2022-09-27T08:18:09;10.20;99.90
15991;DHT22;8100;50.994;4.538;2022-09-27T08:20:56;10.20;99.90
15991;DHT22;8100;50.994;4.538;2022-09-27T08:23:43;10.30;99.90
15991;DHT22;8100;50.994;4.538;2022-09-27T08:26:31;10.00;99.90
15991;DHT22;8100;50.994;4.538;2022-09-27T08:29:18;10.00;99.90
15991;DHT22;8100;50.994;4.538;2022-09-27T08:32:05;9.90;99.90
15991;DHT22;8100;50.994;4.538;2022-09-27T08:34:54;9.90;99.90
15991;DHT22;8100;50.994;4.538;2022-09-27T08:37:41;9.90;99.90
15991;DHT22;8100;50.994;4.538;2022-09-27T08:40:49;9.90;99.90
15991;DHT22;8100;50.994;4.538;2022-09-27T08:43:43;9.80;99.90
15991;DHT22;8100;50.994;4.538;2022-09-27T08:46:39;9.80;99.90
15991;DHT22;8100;50.994;4.538;2022-09-27T08:49:31;9.80;99.90
15991;DHT22;8100;50.994;4.538;2022-09-27T08:52:24;9.70;99.90
15991;DHT22;8100;50.994;4.538;2022-09-27T08:55:20;9.60;99.90
15991;DHT22;8100;50.994;4.538;2022-09-27T08:58:13;9.60;99.90
15991;DHT22;8100;50.994;4.538;2022-09-27T09:01:03;9.40;99.90
15991;DHT22;8100;50.994;4.538;2022-09-27T09:03:54;9.40;99.90
15991;DHT22;8100;50.994;4.538;2022-09-27T09:06:46;9.70;99.90
15991;DHT22;8100;50.994;4.538;2022-09-27T09:09:45;9.80;99.90
15991;DHT22;8100;50.994;4.538;2022-09-27T09:12:41;9.80;99.90
15991;DHT22;8100;50.994;4.538;2022-09-27T09:15:37;9.70;99.90
15991;DHT22;8100;50.994;4.538;2022-09-27T09:18:51;9.60;99.90
15991;DHT22;8100;50.994;4.538;2022-09-27T09:21:49;9.50;99.90
15991;DHT22;8100;50.994;4.538;2022-09-27T09:24:52;9.30;99.90
15991;DHT22;8100;50.994;4.538;2022-09-27T09:27:49;9.30;99.90
15991;DHT22;8100;50.994;4.538;2022-09-27T09:30:45;9.40;99.90
15991;DHT22;8100;50.994;4.538;2022-09-27T09:33:40;9.30;99.90
15991;DHT22;8100;50.994;4.538;2022-09-27T09:36:33;9.50;99.90
15991;DHT22;8100;50.994;4.538;2022-09-27T09:39:24;9.70;99.90
15991;DHT22;8100;50.994;4.538;2022-09-27T09:42:19;9.80;99.90
15991;DHT22;8100;50.994;4.538;2022-09-27T09:45:14;9.70;99.90
15991;DHT22;8100;50.994;4.538;2022-09-27T09:48:05;10.00;99.90
15991;DHT22;8100;50.994;4.538;2022-09-27T09:50:56;10.20;99.90
15991;DHT22;8100;50.994;4.538;2022-09-27T09:53:50;10.50;99.90
15991;DHT22;8100;50.994;4.538;2022-09-27T09:56:42;10.40;99.90
15991;DHT22;8100;50.994;4.538;2022-09-27T09:59:37;10.70;99.90
15991;DHT22;8100;50.994;4.538;2022-09-27T10:02:30;11.10;99.90
15991;DHT22;8100;50.994;4.538;2022-09-27T10:05:20;11.10;99.90
15991;DHT22;8100;50.994;4.538;2022-09-27T10:08:14;11.20;99.90
15991;DHT22;8100;50.994;4.538;2022-09-27T10:11:03;11.20;99.90
15991;DHT22;8100;50.994;4.538;2022-09-27T10:13:51;11.30;99.90
15991;DHT22;8100;50.994;4.538;2022-09-27T10:16:44;11.60;99.90
15991;DHT22;8100;50.994;4.538;2022-09-27T10:19:36;11.50;99.90
15991;DHT22;8100;50.994;4.538;2022-09-27T10:22:28;11.60;99.90
15991;DHT22;8100;50.994;4.538;2022-09-27T10:25:16;11.90;99.90
15991;DHT22;8100;50.994;4.538;2022-09-27T10:28:03;11.70;99.90
15991;DHT22;8100;50.994;4.538;2022-09-27T10:30:54;11.60;99.90
15991;DHT22;8100;50.994;4.538;2022-09-27T10:33:54;11.70;99.90
15991;DHT22;8100;50.994;4.538;2022-09-27T10:36:41;11.70;99.90
15991;DHT22;8100;50.994;4.538;2022-09-27T10:39:29;11.90;99.90
15991;DHT22;8100;50.994;4.538;2022-09-27T10:42:20;12.00;99.90
15991;DHT22;8100;50.994;4.538;2022-09-27T10:45:26;12.00;99.90
15991;DHT22;8100;50.994;4.538;2022-09-27T10:48:18;12.10;99.90
15991;DHT22;8100;50.994;4.538;2022-09-27T10:51:22;12.00;99.90
15991;DHT22;8100;50.994;4.538;2022-09-27T10:54:19;12.10;99.90
15991;DHT22;8100;50.994;4.538;2022-09-27T10:57:17;12.30;99.90
15991;DHT22;8100;50.994;4.538;2022-09-27T11:00:07;12.40;99.90
15991;DHT22;8100;50.994;4.538;2022-09-27T11:03:11;12.30;99.90
15991;DHT22;8100;50.994;4.538;2022-09-27T11:06:19;12.60;99.90
15991;DHT22;8100;50.994;4.538;2022-09-27T11:09:18;12.90;99.90
15991;DHT22;8100;50.994;4.538;2022-09-27T11:12:09;12.30;99.90
15991;DHT22;8100;50.994;4.538;2022-09-27T11:14:59;10.90;99.90
15991;DHT22;8100;50.994;4.538;2022-09-27T11:17:53;10.10;99.90
15991;DHT22;8100;50.994;4.538;2022-09-27T11:20:46;9.50;99.90
15991;DHT22;8100;50.994;4.538;2022-09-27T11:23:48;9.50;99.90
15991;DHT22;8100;50.994;4.538;2022-09-27T11:26:45;9.70;99.90
15991;DHT22;8100;50.994;4.538;2022-09-27T11:29:44;10.10;99.90
15991;DHT22;8100;50.994;4.538;2022-09-27T11:32:45;10.60;99.90
15991;DHT22;8100;50.994;4.538;2022-09-27T11:35:48;10.80;99.90
15991;DHT22;8100;50.994;4.538;2022-09-27T11:38:51;10.50;99.90
15991;DHT22;8100;50.994;4.538;2022-09-27T11:41:50;10.60;99.90
15991;DHT22;8100;50.994;4.538;2022-09-27T11:44:57;11.00;99.90
15991;DHT22;8100;50.994;4.538;2022-09-27T11:47:54;11.10;99.90
15991;DHT22;8100;50.994;4.538;2022-09-27T11:51:01;10.80;99.90
15991;DHT22;8100;50.994;4.538;2022-09-27T11:54:02;10.80;99.90
15991;DHT22;8100;50.994;4.538;2022-09-27T11:56:57;10.80;99.90
15991;DHT22;8100;50.994;4.538;2022-09-27T11:59:58;10.80;99.90
15991;DHT22;8100;50.994;4.538;2022-09-27T12:03:19;10.80;99.90
15991;DHT22;8100;50.994;4.538;2022-09-27T12:06:12;11.00;99.90
15991;DHT22;8100;50.994;4.538;2022-09-27T12:09:05;11.30;99.90
15991;DHT22;8100;50.994;4.538;2022-09-27T12:11:57;11.30;99.90
15991;DHT22;8100;50.994;4.538;2022-09-27T12:14:48;11.70;99.90
15991;DHT22;8100;50.994;4.538;2022-09-27T12:17:39;12.00;99.90
15991;DHT22;8100;50.994;4.538;2022-09-27T12:20:30;12.00;99.90
15991;DHT22;8100;50.994;4.538;2022-09-27T12:23:22;12.00;99.90
15991;DHT22;8100;50.994;4.538;2022-09-27T12:26:16;11.90;99.90
15991;DHT22;8100;50.994;4.538;2022-09-27T12:29:11;11.70;99.90
15991;DHT22;8100;50.994;4.538;2022-09-27T12:32:06;11.30;99.90
15991;DHT22;8100;50.994;4.538;2022-09-27T12:35:03;10.90;99.90
15991;DHT22;8100;50.994;4.538;2022-09-27T12:37:58;10.90;99.90
15991;DHT22;8100;50.994;4.538;2022-09-27T12:40:48;11.20;99.90
15991;DHT22;8100;50.994;4.538;2022-09-27T12:43:43;11.40;99.90
15991;DHT22;8100;50.994;4.538;2022-09-27T12:46:37;11.50;99.90
15991;DHT22;8100;50.994;4.538;2022-09-27T12:49:33;11.60;99.90
15991;DHT22;8100;50.994;4.538;2022-09-27T12:52:28;11.80;99.90
15991;DHT22;8100;50.994;4.538;2022-09-27T12:55:29;11.90;99.90
15991;DHT22;8100;50.994;4.538;2022-09-27T13:01:56;12.20;99.90
15991;DHT22;8100;50.994;4.538;2022-09-27T13:08:34;12.40;99.90
15991;DHT22;8100;50.994;4.538;2022-09-27T13:11:38;12.50;99.90
15991;DHT22;8100;50.994;4.538;2022-09-27T13:14:31;12.40;99.90
15991;DHT22;8100;50.994;4.538;2022-09-27T13:17:49;12.20;99.90
15991;DHT22;8100;50.994;4.538;2022-09-27T13:20:40;12.00;99.90
15991;DHT22;8100;50.994;4.538;2022-09-27T13:23:55;11.80;99.90
15991;DHT22;8100;50.994;4.538;2022-09-27T13:26:47;11.80;99.90
15991;DHT22;8100;50.994;4.538;2022-09-27T13:29:34;12.10;99.90
15991;DHT22;8100;50.994;4.538;2022-09-27T13:32:22;12.30;99.90
15991;DHT22;8100;50.994;4.538;2022-09-27T13:35:18;12.40;99.90
15991;DHT22;8100;50.994;4.538;2022-09-27T13:38:20;12.70;99.90
15991;DHT22;8100;50.994;4.538;2022-09-27T13:41:15;12.80;99.90
15991;DHT22;8100;50.994;4.538;2022-09-27T13:44:07;12.60;99.90
15991;DHT22;8100;50.994;4.538;2022-09-27T13:47:01;12.80;99.90
15991;DHT22;8100;50.994;4.538;2022-09-27T13:49:51;12.90;99.90
15991;DHT22;8100;50.994;4.538;2022-09-27T13:52:43;13.10;99.90
15991;DHT22;8100;50.994;4.538;2022-09-27T13:55:39;13.10;99.90
15991;DHT22;8100;50.994;4.538;2022-09-27T13:58:49;12.70;99.90
15991;DHT22;8100;50.994;4.538;2022-09-27T14:01:40;12.40;99.90
15991;DHT22;8100;50.994;4.538;2022-09-27T14:04:30;12.40;99.90
15991;DHT22;8100;50.994;4.538;2022-09-27T14:07:25;12.30;99.90
15991;DHT22;8100;50.994;4.538;2022-09-27T14:10:17;12.40;99.90
15991;DHT22;8100;50.994;4.538;2022-09-27T14:13:06;12.50;99.90
15991;DHT22;8100;50.994;4.538;2022-09-27T14:15:54;12.60;99.90
15991;DHT22;8100;50.994;4.538;2022-09-27T14:18:44;12.30;99.90
15991;DHT22;8100;50.994;4.538;2022-09-27T14:21:36;12.10;99.90
15991;DHT22;8100;50.994;4.538;2022-09-27T14:24:28;11.70;99.90
15991;DHT22;8100;50.994;4.538;2022-09-27T14:27:19;11.60;99.90
15991;DHT22;8100;50.994;4.538;2022-09-27T14:30:13;11.60;99.90
15991;DHT22;8100;50.994;4.538;2022-09-27T14:33:00;12.10;99.90
15991;DHT22;8100;50.994;4.538;2022-09-27T14:35:49;12.70;99.90
15991;DHT22;8100;50.994;4.538;2022-09-27T14:38:55;13.30;99.90
15991;DHT22;8100;50.994;4.538;2022-09-27T14:41:43;14.10;99.90
15991;DHT22;8100;50.994;4.538;2022-09-27T14:44:33;13.90;99.90
15991;DHT22;8100;50.994;4.538;2022-09-27T14:47:22;13.90;99.90
15991;DHT22;8100;50.994;4.538;2022-09-27T14:50:18;14.10;99.90
15991;DHT22;8100;50.994;4.538;2022-09-27T14:53:21;13.70;99.90
15991;DHT22;8100;50.994;4.538;2022-09-27T14:56:13;12.90;99.90
15991;DHT22;8100;50.994;4.538;2022-09-27T14:59:06;12.50;99.90
15991;DHT22;8100;50.994;4.538;2022-09-27T15:01:59;12.30;99.90
15991;DHT22;8100;50.994;4.538;2022-09-27T15:04:49;12.10;99.90
15991;DHT22;8100;50.994;4.538;2022-09-27T15:07:37;12.00;99.90
15991;DHT22;8100;50.994;4.538;2022-09-27T15:10:26;11.90;99.90
15991;DHT22;8100;50.994;4.538;2022-09-27T15:13:17;11.60;99.90
15991;DHT22;8100;50.994;4.538;2022-09-27T15:16:07;10.80;99.90
15991;DHT22;8100;50.994;4.538;2022-09-27T15:19:01;10.40;99.90
15991;DHT22;8100;50.994;4.538;2022-09-27T15:21:48;10.20;99.90
15991;DHT22;8100;50.994;4.538;2022-09-27T15:24:38;10.20;99.90
15991;DHT22;8100;50.994;4.538;2022-09-27T15:27:25;10.30;99.90
15991;DHT22;8100;50.994;4.538;2022-09-27T15:30:17;10.30;99.90
15991;DHT22;8100;50.994;4.538;2022-09-27T15:33:15;10.30;99.90
15991;DHT22;8100;50.994;4.538;2022-09-27T15:36:07;10.60;99.90
15991;DHT22;8100;50.994;4.538;2022-09-27T15:39:05;11.80;99.90
15991;DHT22;8100;50.994;4.538;2022-09-27T15:42:01;13.70;99.90
15991;DHT22;8100;50.994;4.538;2022-09-27T15:44:50;13.70;99.90
15991;DHT22;8100;50.994;4.538;2022-09-27T15:47:40;14.70;99.90
15991;DHT22;8100;50.994;4.538;2022-09-27T15:50:33;13.40;99.90
15991;DHT22;8100;50.994;4.538;2022-09-27T15:53:52;12.30;99.90
15991;DHT22;8100;50.994;4.538;2022-09-27T15:56:39;12.20;99.90
15991;DHT22;8100;50.994;4.538;2022-09-27T15:59:27;12.40;99.90
15991;DHT22;8100;50.994;4.538;2022-09-27T16:02:16;12.60;99.90
15991;DHT22;8100;50.994;4.538;2022-09-27T16:05:05;13.10;99.90
15991;DHT22;8100;50.994;4.538;2022-09-27T16:07:52;12.80;99.90
15991;DHT22;8100;50.994;4.538;2022-09-27T16:10:45;12.70;99.90
15991;DHT22;8100;50.994;4.538;2022-09-27T16:13:34;13.70;99.90
15991;DHT22;8100;50.994;4.538;2022-09-27T16:16:21;13.80;99.90
15991;DHT22;8100;50.994;4.538;2022-09-27T16:19:08;13.90;99.90
15991;DHT22;8100;50.994;4.538;2022-09-27T16:21:56;13.40;99.90
15991;DHT22;8100;50.994;4.538;2022-09-27T16:24:43;14.10;99.90
15991;DHT22;8100;50.994;4.538;2022-09-27T16:27:32;13.70;99.90
15991;DHT22;8100;50.994;4.538;2022-09-27T16:30:19;13.30;99.90
15991;DHT22;8100;50.994;4.538;2022-09-27T16:33:07;12.80;99.90
15991;DHT22;8100;50.994;4.538;2022-09-27T16:35:54;12.50;99.90
15991;DHT22;8100;50.994;4.538;2022-09-27T16:38:41;12.00;99.90
15991;DHT22;8100;50.994;4.538;2022-09-27T16:41:28;11.80;99.90
15991;DHT22;8100;50.994;4.538;2022-09-27T16:44:17;11.70;99.90
15991;DHT22;8100;50.994;4.538;2022-09-27T16:47:04;11.50;99.90
15991;DHT22;8100;50.994;4.538;2022-09-27T16:49:52;11.40;99.90
15991;DHT22;8100;50.994;4.538;2022-09-27T16:52:56;11.20;99.90
15991;DHT22;8100;50.994;4.538;2022-09-27T16:55:45;11.10;99.90
15991;DHT22;8100;50.994;4.538;2022-09-27T16:58:32;11.10;99.90
15991;DHT22;8100;50.994;4.538;2022-09-27T17:01:20;11.00;99.90
15991;DHT22;8100;50.994;4.538;2022-09-27T17:04:07;10.90;99.90
15991;DHT22;8100;50.994;4.538;2022-09-27T17:06:55;11.00;99.90
15991;DHT22;8100;50.994;4.538;2022-09-27T17:09:42;10.90;99.90
15991;DHT22;8100;50.994;4.538;2022-09-27T17:12:30;10.90;99.90
15991;DHT22;8100;50.994;4.538;2022-09-27T17:15:17;10.90;99.90
15991;DHT22;8100;50.994;4.538;2022-09-27T17:18:06;10.90;99.90
15991;DHT22;8100;50.994;4.538;2022-09-27T17:20:59;10.90;99.90
15991;DHT22;8100;50.994;4.538;2022-09-27T17:23:46;10.80;99.90
15991;DHT22;8100;50.994;4.538;2022-09-27T17:26:33;10.80;99.90
15991;DHT22;8100;50.994;4.538;2022-09-27T17:29:20;10.90;99.90
15991;DHT22;8100;50.994;4.538;2022-09-27T17:32:08;10.70;99.90
15991;DHT22;8100;50.994;4.538;2022-09-27T17:34:56;10.50;99.90
15991;DHT22;8100;50.994;4.538;2022-09-27T17:37:44;10.20;99.90
15991;DHT22;8100;50.994;4.538;2022-09-27T17:40:32;10.00;99.90
15991;DHT22;8100;50.994;4.538;2022-09-27T17:43:19;9.80;99.90
15991;DHT22;8100;50.994;4.538;2022-09-27T17:46:07;9.60;99.90
15991;DHT22;8100;50.994;4.538;2022-09-27T17:48:55;9.70;99.90
15991;DHT22;8100;50.994;4.538;2022-09-27T17:52:02;9.60;99.90
15991;DHT22;8100;50.994;4.538;2022-09-27T17:54:49;9.50;99.90
15991;DHT22;8100;50.994;4.538;2022-09-27T17:57:39;9.70;99.90
15991;DHT22;8100;50.994;4.538;2022-09-27T18:00:26;9.50;99.90
15991;DHT22;8100;50.994;4.538;2022-09-27T18:03:14;9.60;99.90
15991;DHT22;8100;50.994;4.538;2022-09-27T18:06:05;9.60;99.90
15991;DHT22;8100;50.994;4.538;2022-09-27T18:08:54;9.50;99.90
15991;DHT22;8100;50.994;4.538;2022-09-27T18:11:42;9.60;99.90
15991;DHT22;8100;50.994;4.538;2022-09-27T18:14:30;9.90;99.90
15991;DHT22;8100;50.994;4.538;2022-09-27T18:17:17;9.60;99.90
15991;DHT22;8100;50.994;4.538;2022-09-27T18:20:05;9.70;99.90
15991;DHT22;8100;50.994;4.538;2022-09-27T18:22:52;9.50;99.90
15991;DHT22;8100;50.994;4.538;2022-09-27T18:25:41;9.60;99.90
15991;DHT22;8100;50.994;4.538;2022-09-27T18:28:30;9.20;99.90
15991;DHT22;8100;50.994;4.538;2022-09-27T18:31:18;9.30;99.90
15991;DHT22;8100;50.994;4.538;2022-09-27T18:34:06;9.60;99.90
15991;DHT22;8100;50.994;4.538;2022-09-27T18:36:53;9.10;99.90
15991;DHT22;8100;50.994;4.538;2022-09-27T18:39:40;9.60;99.90
15991;DHT22;8100;50.994;4.538;2022-09-27T18:42:29;9.50;99.90